Time;durP1;ratioP1;P1;durP2;ratioP2;P2;SDS_P1;SDS_P2;PMS_P1;PMS_P2;Temp;Humidity;BMP_temperature;BMP_pressure;BME280_temperature;BME280_humidity;BME280_pressure;Samples;Min_cycle;Max_cycle;Signal;HPM_P1;HPM_P2
2021/05/13 00:01:58;;;;;;;8.57;4.53;;;;;;;;;;8327463;28;20366;-69
2021/05/13 00:06:04;;;;;;;8.82;3.40;;;;;;;;;;8326794;28;20340;-69
2021/05/13 00:10:14;;;;;;;10.65;3.65;;;;;;;;;;8307756;28;20363;-69
2021/05/13 00:14:19;;;;;;;13.02;3.65;;;;;;;;;;8309844;28;20071;-69
2021/05/13 00:18:26;;;;;;;15.52;3.88;;;;;;;;;;8325866;28;20459;-69
2021/05/13 00:22:31;;;;;;;13.38;4.22;;;;;;;;;;8326415;28;20134;-70
2021/05/13 00:26:36;;;;;;;8.75;3.72;;;;;;;;;;8308462;28;20386;-70
2021/05/13 00:30:42;;;;;;;9.90;3.85;;;;;;;;;;8308587;28;20471;-70
2021/05/13 00:34:47;;;;;;;6.78;3.97;;;;;;;;;;8327459;28;20395;-70
2021/05/13 00:38:52;;;;;;;8.35;4.30;;;;;;;;;;8325095;28;20340;-70
2021/05/13 00:42:57;;;;;;;9.02;3.83;;;;;;;;;;8307438;28;20374;-69
2021/05/13 00:47:01;;;;;;;11.23;4.25;;;;;;;;;;8326747;28;20479;-70
2021/05/13 00:51:06;;;;;;;10.55;4.63;;;;;;;;;;8327109;28;20348;-70
2021/05/13 00:55:14;;;;;;;5.70;3.22;;;;;;;;;;8324650;28;20401;-70
2021/05/13 00:59:23;;;;;;;9.65;3.53;;;;;;;;;;8325199;28;20447;-69
2021/05/13 01:03:27;;;;;;;7.40;3.33;;;;;;;;;;8310498;28;20112;-69
2021/05/13 01:07:32;;;;;;;6.35;3.65;;;;;;;;;;8275010;28;20486;-70
2021/05/13 01:11:40;;;;;;;10.77;3.53;;;;;;;;;;8292492;28;20529;-70
2021/05/13 01:15:49;;;;;;;7.60;3.45;;;;;;;;;;8291727;28;20057;-69
2021/05/13 01:19:56;;;;;;;4.80;3.53;;;;;;;;;;8291011;28;20475;-70
2021/05/13 01:24:00;;;;;;;7.40;2.85;;;;;;;;;;8291694;28;20052;-69
2021/05/13 01:28:06;;;;;;;10.77;3.42;;;;;;;;;;8291505;28;20404;-70
2021/05/13 01:32:12;;;;;;;11.40;3.15;;;;;;;;;;8291519;28;20502;-69
2021/05/13 01:36:19;;;;;;;7.55;2.63;;;;;;;;;;8256129;28;20057;-70
2021/05/13 01:40:23;;;;;;;10.77;5.15;;;;;;;;;;8257050;28;20079;-69
2021/05/13 01:44:27;;;;;;;8.00;3.35;;;;;;;;;;8258526;28;20361;-69
2021/05/13 01:48:35;;;;;;;8.88;2.75;;;;;;;;;;8258464;28;20391;-70
2021/05/13 01:52:40;;;;;;;4.80;2.63;;;;;;;;;;8259049;28;20508;-70
2021/05/13 01:56:45;;;;;;;13.02;3.45;;;;;;;;;;8258783;28;20470;-70
2021/05/13 02:00:51;;;;;;;4.65;2.90;;;;;;;;;;8259074;28;20080;-70
2021/05/13 02:04:56;;;;;;;7.75;3.40;;;;;;;;;;8258234;28;20085;-70
2021/05/13 02:09:01;;;;;;;8.95;3.60;;;;;;;;;;8258291;28;20445;-71
2021/05/13 02:13:06;;;;;;;8.95;3.13;;;;;;;;;;8257674;28;20456;-71
2021/05/13 02:17:10;;;;;;;9.77;3.50;;;;;;;;;;8258752;28;20490;-69
2021/05/13 02:21:14;;;;;;;6.13;3.47;;;;;;;;;;8257920;28;20430;-69
2021/05/13 02:25:19;;;;;;;6.72;3.50;;;;;;;;;;8256408;28;20357;-69
2021/05/13 02:29:24;;;;;;;10.52;3.65;;;;;;;;;;8257133;28;20375;-69
2021/05/13 02:33:29;;;;;;;9.30;4.07;;;;;;;;;;8282177;28;20486;-69
2021/05/13 02:37:32;;;;;;;6.53;3.55;;;;;;;;;;8298343;28;20439;-69
2021/05/13 02:41:38;;;;;;;8.27;3.40;;;;;;;;;;8296900;28;20494;-69
2021/05/13 02:45:43;;;;;;;8.88;4.30;;;;;;;;;;8296347;28;20466;-69
2021/05/13 02:49:48;;;;;;;8.48;4.00;;;;;;;;;;8295491;28;20455;-69
2021/05/13 02:53:52;;;;;;;7.65;3.53;;;;;;;;;;8294667;28;20378;-69
2021/05/13 02:57:59;;;;;;;6.95;3.67;;;;;;;;;;8297042;28;20475;-69
2021/05/13 03:02:04;;;;;;;7.63;3.15;;;;;;;;;;8296420;28;20364;-69
2021/05/13 03:06:09;;;;;;;6.32;3.60;;;;;;;;;;8296115;28;20053;-69
2021/05/13 03:10:19;;;;;;;5.95;3.55;;;;;;;;;;8276679;28;20075;-70
2021/05/13 03:14:25;;;;;;;10.40;3.63;;;;;;;;;;8278847;28;20067;-70
2021/05/13 03:18:32;;;;;;;6.35;3.53;;;;;;;;;;8294650;28;20456;-70
2021/05/13 03:22:37;;;;;;;9.80;3.75;;;;;;;;;;8279005;28;20491;-69
2021/05/13 03:26:55;;;;;;;11.38;3.30;;;;;;;;;;8295997;28;20479;-70
2021/05/13 03:31:00;;;;;;;8.60;3.30;;;;;;;;;;8293876;28;20386;-69
2021/05/13 03:35:06;;;;;;;7.07;3.38;;;;;;;;;;8293650;28;20372;-69
2021/05/13 03:39:10;;;;;;;4.28;2.90;;;;;;;;;;8276831;28;20379;-68
2021/05/13 03:43:15;;;;;;;7.75;2.85;;;;;;;;;;8293928;28;20057;-68
2021/05/13 03:47:21;;;;;;;7.07;3.17;;;;;;;;;;8294824;28;20359;-68
2021/05/13 03:51:26;;;;;;;8.18;3.42;;;;;;;;;;8296951;28;20075;-68
2021/05/13 03:55:31;;;;;;;9.68;3.42;;;;;;;;;;8295621;28;20467;-68
2021/05/13 03:59:38;;;;;;;7.60;3.10;;;;;;;;;;8293306;28;20103;-69
2021/05/13 04:03:43;;;;;;;9.10;3.25;;;;;;;;;;8293867;28;20052;-68
2021/05/13 04:07:48;;;;;;;6.57;2.80;;;;;;;;;;8294998;28;20462;-68
2021/05/13 04:11:54;;;;;;;8.02;3.10;;;;;;;;;;8294194;28;20463;-68
2021/05/13 04:16:00;;;;;;;4.93;2.70;;;;;;;;;;8293379;28;20415;-68
2021/05/13 04:20:07;;;;;;;8.73;3.38;;;;;;;;;;8294670;28;20577;-69
2021/05/13 04:24:13;;;;;;;9.98;2.75;;;;;;;;;;8295507;28;20460;-68
2021/05/13 04:28:17;;;;;;;8.52;2.92;;;;;;;;;;8294458;28;20467;-69
2021/05/13 04:32:23;;;;;;;8.70;2.60;;;;;;;;;;8293189;28;20391;-69
2021/05/13 04:36:28;;;;;;;8.80;2.80;;;;;;;;;;8292953;28;20497;-68
2021/05/13 04:40:33;;;;;;;7.65;2.40;;;;;;;;;;8290840;28;20451;-69
2021/05/13 04:44:38;;;;;;;8.15;2.20;;;;;;;;;;8292551;28;20166;-68
2021/05/13 04:48:56;;;;;;;11.25;2.60;;;;;;;;;;8293224;28;20061;-68
2021/05/13 04:53:08;;;;;;;9.25;2.45;;;;;;;;;;8291619;28;20459;-68
2021/05/13 04:57:12;;;;;;;6.65;2.83;;;;;;;;;;8291139;28;20356;-69
2021/05/13 05:01:19;;;;;;;8.68;2.80;;;;;;;;;;8292623;28;20479;-69
2021/05/13 05:05:24;;;;;;;4.05;2.60;;;;;;;;;;8290878;28;20413;-68
2021/05/13 05:09:28;;;;;;;2.90;2.00;;;;;;;;;;8291157;28;20475;-69
2021/05/13 05:13:33;;;;;;;5.53;2.78;;;;;;;;;;8290863;28;20525;-68
2021/05/13 05:17:38;;;;;;;3.67;1.77;;;;;;;;;;8274795;28;20455;-69
2021/05/13 05:21:43;;;;;;;6.05;2.60;;;;;;;;;;8291811;28;20448;-69
2021/05/13 05:25:49;;;;;;;4.55;1.98;;;;;;;;;;8291615;28;20410;-68
2021/05/13 05:29:52;;;;;;;8.00;2.35;;;;;;;;;;8291206;28;20052;-69
2021/05/13 05:33:57;;;;;;;7.75;2.22;;;;;;;;;;8290749;28;20443;-68
2021/05/13 05:38:03;;;;;;;4.78;1.83;;;;;;;;;;8290104;28;20479;-68
2021/05/13 05:42:09;;;;;;;4.80;1.85;;;;;;;;;;8272585;28;20459;-69
2021/05/13 05:46:13;;;;;;;4.63;1.67;;;;;;;;;;8271951;28;20044;-69
2021/05/13 05:50:19;;;;;;;6.30;2.00;;;;;;;;;;8291390;28;20448;-69
2021/05/13 05:54:24;;;;;;;3.00;1.80;;;;;;;;;;8290723;28;20052;-68
2021/05/13 05:58:29;;;;;;;5.88;1.65;;;;;;;;;;8291023;28;20359;-69
2021/05/13 06:02:34;;;;;;;4.80;2.13;;;;;;;;;;8291275;28;20487;-68
2021/05/13 06:06:39;;;;;;;4.65;1.70;;;;;;;;;;8294620;28;20060;-69
2021/05/13 06:10:44;;;;;;;4.22;1.80;;;;;;;;;;8298133;28;20052;-69
2021/05/13 06:14:50;;;;;;;2.63;1.80;;;;;;;;;;8299501;28;20398;-69
2021/05/13 06:18:57;;;;;;;4.20;1.90;;;;;;;;;;8281886;28;20057;-70
2021/05/13 06:23:04;;;;;;;4.47;1.95;;;;;;;;;;8298681;28;20079;-68
2021/05/13 06:27:09;;;;;;;2.80;1.77;;;;;;;;;;8298631;28;20439;-68
2021/05/13 06:31:14;;;;;;;5.78;1.83;;;;;;;;;;8297548;28;20370;-69
2021/05/13 06:35:21;;;;;;;8.60;2.00;;;;;;;;;;8296327;28;20337;-70
2021/05/13 06:39:26;;;;;;;4.67;1.73;;;;;;;;;;8280492;28;20505;-70
2021/05/13 06:43:47;;;;;;;5.00;2.08;;;;;;;;;;8297422;28;20991;-69
2021/05/13 06:47:52;;;;;;;6.40;2.10;;;;;;;;;;8298326;28;20386;-71
2021/05/13 06:51:57;;;;;;;5.57;1.95;;;;;;;;;;8297022;28;20476;-69
2021/05/13 06:56:03;;;;;;;6.80;2.05;;;;;;;;;;8295633;28;20048;-69
2021/05/13 07:00:07;;;;;;;4.45;2.60;;;;;;;;;;8278091;28;20490;-70
2021/05/13 07:04:12;;;;;;;9.73;2.08;;;;;;;;;;8294593;28;20532;-68
2021/05/13 07:08:17;;;;;;;11.00;1.85;;;;;;;;;;8295594;28;20406;-68
2021/05/13 07:12:22;;;;;;;8.05;1.85;;;;;;;;;;8294481;28;20471;-68
2021/05/13 07:16:27;;;;;;;2.70;1.70;;;;;;;;;;8294573;28;20440;-68
2021/05/13 07:20:33;;;;;;;4.93;1.90;;;;;;;;;;8294167;28;20410;-68
2021/05/13 07:24:38;;;;;;;6.03;1.85;;;;;;;;;;8294845;28;20336;-68
2021/05/13 07:28:41;;;;;;;7.72;1.90;;;;;;;;;;8278843;28;20379;-68
2021/05/13 07:32:47;;;;;;;4.90;2.22;;;;;;;;;;8277468;28;20387;-68
2021/05/13 07:36:52;;;;;;;7.65;2.15;;;;;;;;;;8294198;28;20679;-68
2021/05/13 07:40:59;;;;;;;6.95;2.20;;;;;;;;;;8294790;28;20056;-69
2021/05/13 07:45:06;;;;;;;6.68;2.30;;;;;;;;;;8295964;28;20316;-68
2021/05/13 07:49:11;;;;;;;4.00;1.90;;;;;;;;;;8294014;28;20368;-68
2021/05/13 07:53:16;;;;;;;9.23;2.03;;;;;;;;;;8278174;28;20374;-68
2021/05/13 07:57:21;;;;;;;3.80;1.75;;;;;;;;;;8294573;28;20459;-69
2021/05/13 08:01:26;;;;;;;9.63;1.90;;;;;;;;;;8279009;28;20074;-69
2021/05/13 08:05:31;;;;;;;3.28;1.75;;;;;;;;;;8294738;28;20386;-68
2021/05/13 08:09:36;;;;;;;5.18;2.17;;;;;;;;;;8275528;28;20379;-69
2021/05/13 08:13:42;;;;;;;4.65;1.95;;;;;;;;;;8293908;28;20071;-68
2021/05/13 08:17:50;;;;;;;6.00;1.52;;;;;;;;;;8294615;28;20343;-69
2021/05/13 08:21:55;;;;;;;6.18;1.80;;;;;;;;;;8294340;28;20452;-68
2021/05/13 08:26:00;;;;;;;5.07;1.42;;;;;;;;;;8294592;28;20467;-68
2021/05/13 08:30:09;;;;;;;4.40;1.80;;;;;;;;;;8297247;28;20394;-68
2021/05/13 08:34:14;;;;;;;7.65;2.08;;;;;;;;;;8277926;28;20061;-69
2021/05/13 08:38:19;;;;;;;3.55;1.45;;;;;;;;;;8293328;28;20474;-68
2021/05/13 08:42:23;;;;;;;6.97;1.70;;;;;;;;;;8294127;28;20376;-68
2021/05/13 08:46:28;;;;;;;5.53;1.48;;;;;;;;;;8293322;28;20481;-68
2021/05/13 08:50:32;;;;;;;8.27;1.90;;;;;;;;;;8275969;28;20382;-67
2021/05/13 08:54:54;;;;;;;4.38;1.90;;;;;;;;;;8295278;28;20048;-68
2021/05/13 08:59:03;;;;;;;10.80;2.20;;;;;;;;;;8293774;28;20364;-68
2021/05/13 09:03:09;;;;;;;3.47;1.92;;;;;;;;;;8275679;28;20372;-67
2021/05/13 09:07:27;;;;;;;3.92;1.70;;;;;;;;;;8275057;28;20491;-69
2021/05/13 09:11:32;;;;;;;3.30;1.65;;;;;;;;;;8294854;28;20473;-68
2021/05/13 09:15:37;;;;;;;5.88;1.70;;;;;;;;;;8294561;28;20443;-68
2021/05/13 09:19:42;;;;;;;5.10;2.05;;;;;;;;;;8276258;28;20497;-68
2021/05/13 09:23:47;;;;;;;5.43;2.08;;;;;;;;;;8293521;28;20365;-68
2021/05/13 09:27:51;;;;;;;4.47;1.45;;;;;;;;;;8277040;28;20040;-68
2021/05/13 09:31:56;;;;;;;10.23;1.88;;;;;;;;;;8295642;28;20075;-67
2021/05/13 09:36:22;;;;;;;4.68;1.48;;;;;;;;;;8296820;28;20371;-67
2021/05/13 09:40:42;;;;;;;2.80;1.60;;;;;;;;;;8276875;28;20505;-68
2021/05/13 09:44:49;;;;;;;5.15;1.98;;;;;;;;;;8295826;28;20058;-67
2021/05/13 09:48:58;;;;;;;4.25;1.70;;;;;;;;;;8295179;28;20474;-68
2021/05/13 09:53:03;;;;;;;3.30;1.92;;;;;;;;;;8277472;28;20060;-68
2021/05/13 09:57:08;;;;;;;6.57;2.13;;;;;;;;;;8294242;28;20454;-68
2021/05/13 10:01:14;;;;;;;6.32;2.85;;;;;;;;;;8295621;28;20053;-71
2021/05/13 10:05:24;;;;;;;5.97;1.80;;;;;;;;;;8295876;28;20371;-68
2021/05/13 10:09:31;;;;;;;4.65;1.90;;;;;;;;;;8290275;28;20343;-68
2021/05/13 10:13:56;;;;;;;3.88;1.83;;;;;;;;;;8292647;28;20348;-68
2021/05/13 10:18:49;;;;;;;6.63;1.85;;;;;;;;;;8292014;28;20064;-68
2021/05/13 10:23:14;;;;;;;9.23;1.80;;;;;;;;;;8275457;28;20348;-68
2021/05/13 10:27:20;;;;;;;8.90;1.90;;;;;;;;;;8277008;28;20464;-68
2021/05/13 10:31:36;;;;;;;4.95;2.08;;;;;;;;;;8293583;28;20364;-69
2021/05/13 10:36:05;;;;;;;6.95;1.85;;;;;;;;;;8261515;28;20363;-68
2021/05/13 10:40:13;;;;;;;8.23;1.92;;;;;;;;;;8263901;28;20044;-68
2021/05/13 10:44:19;;;;;;;3.35;1.80;;;;;;;;;;8263518;28;20386;-68
2021/05/13 10:48:39;;;;;;;7.28;1.80;;;;;;;;;;8278293;28;20071;-68
2021/05/13 10:52:44;;;;;;;3.92;2.05;;;;;;;;;;8260102;28;20090;-68
2021/05/13 10:56:48;;;;;;;4.63;1.58;;;;;;;;;;8264499;28;20044;-68
2021/05/13 11:00:54;;;;;;;9.00;2.90;;;;;;;;;;8264321;28;20464;-68
2021/05/13 11:04:59;;;;;;;8.95;1.80;;;;;;;;;;8248990;28;20910;-68
2021/05/13 11:09:04;;;;;;;5.07;1.70;;;;;;;;;;8282225;28;20041;-68
2021/05/13 11:13:10;;;;;;;3.60;1.80;;;;;;;;;;8280266;28;20422;-68
2021/05/13 11:17:15;;;;;;;6.38;1.77;;;;;;;;;;8264634;28;20353;-68
2021/05/13 11:21:21;;;;;;;7.13;2.08;;;;;;;;;;8265457;28;20461;-67
2021/05/13 11:25:40;;;;;;;2.50;1.77;;;;;;;;;;8263547;28;20459;-68
2021/05/13 11:29:51;;;;;;;5.90;1.92;;;;;;;;;;8265733;28;20624;-68
2021/05/13 11:33:59;;;;;;;5.78;1.80;;;;;;;;;;8271319;28;20479;-68
2021/05/13 11:38:19;;;;;;;3.40;1.38;;;;;;;;;;8295698;28;20352;-68
2021/05/13 11:42:24;;;;;;;7.22;1.85;;;;;;;;;;8279993;28;20382;-67
2021/05/13 11:46:30;;;;;;;4.10;1.90;;;;;;;;;;8296075;28;20356;-68
2021/05/13 11:50:35;;;;;;;5.28;1.92;;;;;;;;;;8294779;28;20372;-67
2021/05/13 11:54:40;;;;;;;3.15;1.60;;;;;;;;;;8292713;28;20356;-68
2021/05/13 11:58:56;;;;;;;6.90;2.40;;;;;;;;;;8293584;28;20386;-68
2021/05/13 12:03:16;;;;;;;5.68;1.92;;;;;;;;;;8279363;28;20663;-67
2021/05/13 12:07:21;;;;;;;8.00;2.10;;;;;;;;;;8296336;28;20507;-67
2021/05/13 12:11:28;;;;;;;2.80;1.80;;;;;;;;;;8278206;28;20364;-67
2021/05/13 12:15:33;;;;;;;8.73;2.15;;;;;;;;;;8295490;28;20352;-67
2021/05/13 12:19:43;;;;;;;6.03;2.05;;;;;;;;;;8294944;28;20403;-67
2021/05/13 12:23:48;;;;;;;3.20;2.08;;;;;;;;;;8294141;28;20368;-68
2021/05/13 12:27:53;;;;;;;3.20;2.00;;;;;;;;;;8276557;28;20355;-67
2021/05/13 12:31:59;;;;;;;8.95;1.85;;;;;;;;;;8276444;28;20451;-68
2021/05/13 12:36:04;;;;;;;7.15;1.92;;;;;;;;;;8292154;28;20405;-68
2021/05/13 12:40:09;;;;;;;4.15;1.80;;;;;;;;;;8291055;28;20470;-68
2021/05/13 12:44:16;;;;;;;6.57;2.45;;;;;;;;;;8292072;28;20443;-68
2021/05/13 12:48:24;;;;;;;6.93;2.17;;;;;;;;;;8291246;28;20333;-68
2021/05/13 12:52:29;;;;;;;12.27;2.30;;;;;;;;;;8273952;28;20110;-67
2021/05/13 12:56:35;;;;;;;7.85;2.50;;;;;;;;;;8291095;28;20079;-68
2021/05/13 13:00:41;;;;;;;10.20;2.30;;;;;;;;;;8294561;28;20598;-69
2021/05/13 13:04:58;;;;;;;10.98;2.13;;;;;;;;;;8292274;28;20467;-69
2021/05/13 13:09:04;;;;;;;4.55;1.77;;;;;;;;;;8274813;28;20410;-68
2021/05/13 13:13:15;;;;;;;3.13;1.75;;;;;;;;;;8291261;28;20422;-68
2021/05/13 13:17:25;;;;;;;3.78;2.00;;;;;;;;;;8291335;28;20489;-67
2021/05/13 13:21:31;;;;;;;5.65;2.58;;;;;;;;;;8291635;28;20372;-68
2021/05/13 13:25:36;;;;;;;3.97;2.65;;;;;;;;;;8274239;28;20053;-68
2021/05/13 13:29:41;;;;;;;4.80;1.90;;;;;;;;;;8291150;28;20467;-68
2021/05/13 13:33:49;;;;;;;13.48;3.10;;;;;;;;;;8274902;28;20174;-68
2021/05/13 13:37:54;;;;;;;2.90;2.10;;;;;;;;;;8292913;28;20447;-68
2021/05/13 13:41:59;;;;;;;3.92;1.83;;;;;;;;;;8292020;28;20490;-68
2021/05/13 13:46:04;;;;;;;7.57;2.40;;;;;;;;;;8290153;28;20406;-68
2021/05/13 13:50:09;;;;;;;15.90;3.05;;;;;;;;;;8273125;28;20402;-68
2021/05/13 13:54:15;;;;;;;5.03;2.53;;;;;;;;;;8291939;28;20363;-69
2021/05/13 13:58:21;;;;;;;7.95;2.83;;;;;;;;;;8291327;28;20052;-69
2021/05/13 14:02:25;;;;;;;7.20;2.45;;;;;;;;;;8274742;28;20370;-68
2021/05/13 14:06:31;;;;;;;6.80;2.67;;;;;;;;;;8290069;28;20485;-68
2021/05/13 14:10:37;;;;;;;8.65;2.88;;;;;;;;;;8271944;28;20540;-68
2021/05/13 14:14:42;;;;;;;5.63;2.92;;;;;;;;;;8291346;28;20056;-68
2021/05/13 14:18:46;;;;;;;4.30;2.40;;;;;;;;;;8291602;28;20352;-68
2021/05/13 14:22:52;;;;;;;6.05;2.45;;;;;;;;;;8289817;28;20427;-69
2021/05/13 14:26:57;;;;;;;5.55;2.58;;;;;;;;;;8273963;28;20509;-68
2021/05/13 14:31:03;;;;;;;9.45;2.63;;;;;;;;;;8298311;28;20475;-68
2021/05/13 14:35:09;;;;;;;4.80;2.58;;;;;;;;;;8295840;28;20463;-68
2021/05/13 14:39:13;;;;;;;5.07;2.60;;;;;;;;;;8295093;28;20048;-68
2021/05/13 14:43:20;;;;;;;3.95;2.80;;;;;;;;;;8295833;28;20083;-68
2021/05/13 14:47:25;;;;;;;5.90;2.83;;;;;;;;;;8295858;28;20071;-68
2021/05/13 14:51:30;;;;;;;11.20;2.50;;;;;;;;;;8294366;28;20452;-68
2021/05/13 14:55:35;;;;;;;4.78;3.05;;;;;;;;;;8295587;28;20395;-67
2021/05/13 14:59:40;;;;;;;17.17;3.13;;;;;;;;;;8294216;28;20372;-68
2021/05/13 15:03:45;;;;;;;14.27;6.38;;;;;;;;;;8278007;28;20393;-66
2021/05/13 15:07:50;;;;;;;14.10;7.32;;;;;;;;;;8294626;28;20056;-67
2021/05/13 15:11:54;;;;;;;7.85;5.30;;;;;;;;;;8296003;28;20339;-66
2021/05/13 15:16:00;;;;;;;12.70;6.55;;;;;;;;;;8294139;28;20474;-67
2021/05/13 15:20:06;;;;;;;11.63;6.45;;;;;;;;;;8293069;28;20481;-67
2021/05/13 15:24:11;;;;;;;11.40;6.38;;;;;;;;;;8293278;28;20052;-66
2021/05/13 15:28:16;;;;;;;12.10;5.30;;;;;;;;;;8294807;28;20313;-67
2021/05/13 15:32:20;;;;;;;9.80;5.38;;;;;;;;;;8294697;28;20372;-67
2021/05/13 15:36:25;;;;;;;7.32;4.35;;;;;;;;;;8294328;28;20071;-68
2021/05/13 15:40:30;;;;;;;13.55;4.80;;;;;;;;;;8292533;28;20360;-67
2021/05/13 15:44:34;;;;;;;7.80;5.10;;;;;;;;;;8294288;28;20440;-66
2021/05/13 15:48:39;;;;;;;10.00;4.97;;;;;;;;;;8294612;28;20060;-67
2021/05/13 15:52:44;;;;;;;8.20;4.32;;;;;;;;;;8293130;28;20340;-67
2021/05/13 15:56:49;;;;;;;8.95;5.13;;;;;;;;;;8275870;28;20079;-66
2021/05/13 16:00:55;;;;;;;7.38;4.68;;;;;;;;;;8294636;28;20375;-67
2021/05/13 16:05:00;;;;;;;9.95;4.80;;;;;;;;;;8293077;28;20376;-67
2021/05/13 16:09:06;;;;;;;6.68;4.45;;;;;;;;;;8292930;28;20063;-67
2021/05/13 16:13:17;;;;;;;8.10;4.70;;;;;;;;;;8293061;28;20470;-68
2021/05/13 16:17:22;;;;;;;7.32;3.58;;;;;;;;;;8292826;28;20122;-66
2021/05/13 16:21:27;;;;;;;9.98;4.38;;;;;;;;;;8293021;28;20386;-68
2021/05/13 16:25:32;;;;;;;7.78;4.22;;;;;;;;;;8292548;28;20375;-67
2021/05/13 16:29:37;;;;;;;6.55;4.35;;;;;;;;;;8293436;28;20353;-67
2021/05/13 16:33:40;;;;;;;7.43;4.63;;;;;;;;;;8291151;28;20486;-67
2021/05/13 16:37:44;;;;;;;9.52;4.88;;;;;;;;;;8291992;28;20368;-67
2021/05/13 16:41:48;;;;;;;10.23;4.70;;;;;;;;;;8288249;28;20074;-67
2021/05/13 16:45:52;;;;;;;9.57;5.45;;;;;;;;;;8292050;28;20389;-67
2021/05/13 16:49:57;;;;;;;7.82;4.82;;;;;;;;;;8275010;28;20356;-67
2021/05/13 16:54:01;;;;;;;5.63;4.28;;;;;;;;;;8291709;28;20459;-67
2021/05/13 16:58:06;;;;;;;7.90;4.88;;;;;;;;;;8292590;28;20079;-67
2021/05/13 17:02:11;;;;;;;7.20;4.78;;;;;;;;;;8291690;28;20394;-66
2021/05/13 17:06:26;;;;;;;9.10;4.80;;;;;;;;;;8289996;28;20340;-68
2021/05/13 17:10:31;;;;;;;5.90;3.85;;;;;;;;;;8290080;28;20418;-69
2021/05/13 17:14:36;;;;;;;8.48;4.13;;;;;;;;;;8289345;28;20075;-67
2021/05/13 17:18:41;;;;;;;10.63;4.70;;;;;;;;;;8292421;28;20360;-67
2021/05/13 17:22:45;;;;;;;8.25;5.25;;;;;;;;;;8273036;28;20044;-67
2021/05/13 17:26:51;;;;;;;8.02;4.60;;;;;;;;;;8291340;28;20406;-67
2021/05/13 17:30:59;;;;;;;8.65;5.20;;;;;;;;;;8273601;28;20379;-66
2021/05/13 17:35:05;;;;;;;6.70;4.43;;;;;;;;;;8289272;28;20371;-67
2021/05/13 17:39:13;;;;;;;7.93;4.05;;;;;;;;;;8289871;28;20386;-67
2021/05/13 17:43:16;;;;;;;9.95;4.80;;;;;;;;;;8290138;28;20394;-67
2021/05/13 17:47:22;;;;;;;6.57;4.20;;;;;;;;;;8272020;28;20074;-67
2021/05/13 17:51:27;;;;;;;10.25;4.88;;;;;;;;;;8290369;28;20548;-67
2021/05/13 17:55:31;;;;;;;9.13;5.60;;;;;;;;;;8272038;28;20387;-67
2021/05/13 17:59:36;;;;;;;10.25;5.38;;;;;;;;;;8289736;28;20349;-67
2021/05/13 18:03:40;;;;;;;8.43;5.00;;;;;;;;;;8288122;28;20364;-66
2021/05/13 18:07:45;;;;;;;7.57;4.78;;;;;;;;;;8290249;28;20490;-66
2021/05/13 18:11:51;;;;;;;8.25;5.28;;;;;;;;;;8272455;28;20371;-66
2021/05/13 18:16:21;;;;;;;9.00;5.38;;;;;;;;;;8289858;28;20458;-67
2021/05/13 18:21:01;;;;;;;9.40;5.45;;;;;;;;;;8290431;28;20387;-67
2021/05/13 18:25:34;;;;;;;15.50;6.13;;;;;;;;;;8273853;28;20451;-68
2021/05/13 18:30:15;;;;;;;10.15;5.50;;;;;;;;;;8289081;28;20356;-66
2021/05/13 18:34:45;;;;;;;9.25;5.65;;;;;;;;;;8280154;28;20069;-67
2021/05/13 18:39:23;;;;;;;10.48;6.53;;;;;;;;;;8257377;28;20075;-66
2021/05/13 18:43:56;;;;;;;10.55;5.28;;;;;;;;;;8257122;28;20487;-67
2021/05/13 18:48:31;;;;;;;7.95;4.75;;;;;;;;;;8258968;28;20379;-68
2021/05/13 18:52:37;;;;;;;7.05;5.30;;;;;;;;;;8257778;28;20375;-68
2021/05/13 18:56:48;;;;;;;9.23;6.22;;;;;;;;;;8256232;28;20072;-66
2021/05/13 19:00:53;;;;;;;10.07;5.65;;;;;;;;;;8256451;28;20463;-67
2021/05/13 19:04:58;;;;;;;6.82;4.78;;;;;;;;;;8257600;28;20052;-67
2021/05/13 19:09:05;;;;;;;9.40;6.60;;;;;;;;;;8257716;28;20057;-67
2021/05/13 19:13:13;;;;;;;10.23;6.13;;;;;;;;;;8257665;28;20452;-67
2021/05/13 19:17:19;;;;;;;10.77;6.50;;;;;;;;;;8263962;28;20053;-67
2021/05/13 19:21:24;;;;;;;12.35;8.48;;;;;;;;;;8261363;28;20410;-68
2021/05/13 19:25:30;;;;;;;10.13;6.35;;;;;;;;;;8260268;28;20337;-68
2021/05/13 19:29:44;;;;;;;17.25;7.10;;;;;;;;;;8260300;28;20390;-68
2021/05/13 19:38:13;;;;;;;10.07;6.50;;;;;;;;;;8288263;28;20391;-67
2021/05/13 19:42:18;;;;;;;14.05;8.75;;;;;;;;;;8293884;28;20474;-68
2021/05/13 19:46:24;;;;;;;16.88;7.85;;;;;;;;;;8294484;28;20388;-68
2021/05/13 19:50:29;;;;;;;14.20;8.60;;;;;;;;;;8293784;28;20486;-67
2021/05/13 19:54:33;;;;;;;14.80;8.45;;;;;;;;;;8293208;28;20459;-67
2021/05/13 19:58:41;;;;;;;11.48;7.38;;;;;;;;;;8297284;28;20352;-68
2021/05/13 20:02:53;;;;;;;11.25;7.28;;;;;;;;;;8295317;28;20375;-67
2021/05/13 20:07:04;;;;;;;18.67;8.05;;;;;;;;;;8291427;28;20439;-68
2021/05/13 20:11:19;;;;;;;13.77;7.65;;;;;;;;;;8277533;28;20451;-67
2021/05/13 20:15:24;;;;;;;11.25;6.72;;;;;;;;;;8293004;28;20083;-67
2021/05/13 20:19:29;;;;;;;10.63;5.82;;;;;;;;;;8276116;28;20379;-68
2021/05/13 20:23:38;;;;;;;9.98;6.65;;;;;;;;;;8293813;28;20395;-66
2021/05/13 20:27:47;;;;;;;12.23;7.20;;;;;;;;;;8292444;28;20475;-67
2021/05/13 20:31:50;;;;;;;10.52;6.70;;;;;;;;;;8295350;28;20048;-67
2021/05/13 20:35:57;;;;;;;8.93;6.15;;;;;;;;;;8291881;28;20471;-68
2021/05/13 20:40:03;;;;;;;11.77;5.65;;;;;;;;;;8294175;28;20355;-67
2021/05/13 20:44:09;;;;;;;9.02;6.00;;;;;;;;;;8295003;28;20440;-66
2021/05/13 20:48:22;;;;;;;11.95;6.57;;;;;;;;;;8294894;28;20060;-68
2021/05/13 20:56:56;;;;;;;10.27;6.45;;;;;;;;;;8276557;28;20071;-67
2021/05/13 21:01:17;;;;;;;10.00;6.65;;;;;;;;;;8266814;28;20383;-67
2021/05/13 21:05:26;;;;;;;9.30;6.55;;;;;;;;;;8291880;28;20532;-67
2021/05/13 21:27:45;;;;;;;12.27;6.95;;;;;;;;;;8273854;28;20470;-67
2021/05/13 21:31:50;;;;;;;12.88;7.93;;;;;;;;;;8290518;28;20498;-67
2021/05/13 21:35:56;;;;;;;13.18;8.63;;;;;;;;;;8289819;28;20060;-67
2021/05/13 21:40:01;;;;;;;15.13;9.15;;;;;;;;;;8292170;28;20414;-67
2021/05/13 21:44:06;;;;;;;17.38;9.68;;;;;;;;;;8292727;28;20440;-67
2021/05/13 21:48:24;;;;;;;16.90;9.95;;;;;;;;;;8289478;28;20079;-67
2021/05/13 21:52:30;;;;;;;16.25;10.13;;;;;;;;;;8274962;28;20463;-67
2021/05/13 21:56:35;;;;;;;16.80;11.38;;;;;;;;;;8289679;28;20487;-67
2021/05/13 22:00:40;;;;;;;16.73;11.13;;;;;;;;;;8290530;28;20060;-68
2021/05/13 22:04:51;;;;;;;16.60;11.68;;;;;;;;;;8274365;28;20479;-69
2021/05/13 22:08:56;;;;;;;24.92;13.13;;;;;;;;;;8272941;28;20348;-67
2021/05/13 22:13:05;;;;;;;17.48;12.15;;;;;;;;;;8289936;28;20494;-67
2021/05/13 22:17:12;;;;;;;17.52;12.75;;;;;;;;;;8290788;28;20060;-67
2021/05/13 22:21:17;;;;;;;16.00;12.23;;;;;;;;;;8272071;28;20406;-67
2021/05/13 22:25:28;;;;;;;19.27;12.65;;;;;;;;;;8291703;28;20347;-67
2021/05/13 22:29:33;;;;;;;21.77;13.32;;;;;;;;;;8291523;28;20060;-67
2021/05/13 22:33:39;;;;;;;18.38;13.02;;;;;;;;;;8290011;28;20443;-67
2021/05/13 22:37:47;;;;;;;22.98;14.10;;;;;;;;;;8289959;28;20472;-67
2021/05/13 22:41:50;;;;;;;25.08;14.57;;;;;;;;;;8273838;28;20058;-67
2021/05/13 22:45:59;;;;;;;20.92;13.52;;;;;;;;;;8289495;28;20536;-67
2021/05/13 22:50:07;;;;;;;23.15;14.30;;;;;;;;;;8277137;28;20070;-67
2021/05/13 22:54:13;;;;;;;31.67;15.57;;;;;;;;;;8295425;28;20048;-67
2021/05/13 22:58:18;;;;;;;22.95;13.68;;;;;;;;;;8296390;28;20078;-68
2021/05/13 23:02:28;;;;;;;17.77;12.80;;;;;;;;;;8277577;28;20370;-67
2021/05/13 23:06:35;;;;;;;20.40;13.68;;;;;;;;;;8278739;28;20463;-68
2021/05/13 23:10:39;;;;;;;16.80;12.18;;;;;;;;;;8296423;28;20344;-67
2021/05/13 23:15:12;;;;;;;25.65;12.20;;;;;;;;;;8278634;28;20044;-67
2021/05/13 23:19:10;;;;;;;17.10;11.63;;;;;;;;;;8295158;28;20461;-68
2021/05/13 23:23:14;;;;;;;17.73;12.15;;;;;;;;;;8295948;28;20403;-68
2021/05/13 23:27:19;;;;;;;15.35;10.35;;;;;;;;;;8295038;28;20052;-67
2021/05/13 23:31:28;;;;;;;15.88;11.93;;;;;;;;;;8296287;28;20102;-67
2021/05/13 23:35:33;;;;;;;19.23;11.68;;;;;;;;;;8277758;28;20426;-67
2021/05/13 23:39:40;;;;;;;21.63;12.57;;;;;;;;;;8295473;28;20467;-67
2021/05/13 23:43:46;;;;;;;21.90;11.65;;;;;;;;;;8295309;28;20455;-67
2021/05/13 23:47:52;;;;;;;21.52;12.40;;;;;;;;;;8294486;28;20459;-68
2021/05/13 23:51:58;;;;;;;19.98;12.98;;;;;;;;;;8294864;28;20467;-67
2021/05/13 23:56:04;;;;;;;19.25;12.02;;;;;;;;;;8276595;28;20349;-67
